Time;durP1;ratioP1;P1;durP2;ratioP2;P2;SDS_P1;SDS_P2;PMS_P1;PMS_P2;Temp;Humidity;BMP_temperature;BMP_pressure;BME280_temperature;BME280_humidity;BME280_pressure;Samples;Min_cycle;Max_cycle;Signal;HPM_P1;HPM_P2
2023/03/18 00:00:40;;;;;;;;;;;;;;;11.71;100.00;100738.59;5023526;28;20444;-74
2023/03/18 00:03:05;;;;;;;;;;;;;;;11.67;100.00;100732.63;5000662;28;19918;-75
2023/03/18 00:05:31;;;;;;;;;;;;;;;11.64;100.00;100726.69;5018426;28;20005;-74
2023/03/18 00:07:56;;;;;;;;;;;;;;;11.78;100.00;100723.66;5016733;28;20055;-74
2023/03/18 00:10:22;;;;;;;;;;;;;;;11.61;100.00;100725.09;4992872;28;20000;-74
2023/03/18 00:12:47;;;;;;;;;;;;;;;11.67;100.00;100715.63;5003359;28;20015;-74
2023/03/18 00:15:13;;;;;;;;;;;;;;;11.63;100.00;100723.13;5004250;28;19921;-74
2023/03/18 00:17:40;;;;;;;;;;;;;;;11.60;100.00;100711.78;5021944;28;20019;-74
2023/03/18 00:20:06;;;;;;;;;;;;;;;11.61;100.00;100714.31;4990555;28;20343;-74
2023/03/18 00:22:36;;;;;;;;;;;;;;;11.68;100.00;100712.84;5008707;28;20552;-74
2023/03/18 00:25:01;;;;;;;;;;;;;;;11.67;100.00;100705.75;5006689;28;19928;-74
2023/03/18 00:27:27;;;;;;;;;;;;;;;11.65;100.00;100705.03;5016674;28;19921;-74
2023/03/18 00:29:52;;;;;;;;;;;;;;;11.61;100.00;100713.50;5023029;28;20014;-74
2023/03/18 00:32:17;;;;;;;;;;;;;;;11.58;100.00;100717.28;4999189;28;20011;-74
2023/03/18 00:34:43;;;;;;;;;;;;;;;11.55;100.00;100714.84;5029519;28;19961;-74
2023/03/18 00:37:09;;;;;;;;;;;;;;;11.60;100.00;100719.84;5006795;28;20015;-74
2023/03/18 00:39:35;;;;;;;;;;;;;;;11.64;100.00;100716.75;5009028;28;19987;-74
2023/03/18 00:42:09;;;;;;;;;;;;;;;11.60;100.00;100719.84;5017908;28;20319;-74
2023/03/18 00:44:34;;;;;;;;;;;;;;;11.51;100.00;100727.69;5014918;28;19922;-74
2023/03/18 00:46:59;;;;;;;;;;;;;;;11.40;100.00;100733.09;5002569;28;20260;-74
2023/03/18 00:49:25;;;;;;;;;;;;;;;11.32;100.00;100738.28;5006286;28;20369;-74
2023/03/18 00:51:50;;;;;;;;;;;;;;;11.31;100.00;100744.63;5002946;28;20283;-74
2023/03/18 00:54:18;;;;;;;;;;;;;;;11.32;100.00;100746.34;5022475;28;19921;-73
2023/03/18 00:56:43;;;;;;;;;;;;;;;11.19;100.00;100749.19;5018583;28;19927;-74
2023/03/18 00:59:09;;;;;;;;;;;;;;;11.25;100.00;100746.00;5023132;28;19929;-74
2023/03/18 01:01:34;;;;;;;;;;;;;;;11.22;100.00;100736.34;5010417;28;19921;-74
2023/03/18 01:04:00;;;;;;;;;;;;;;;11.21;100.00;100731.94;5019519;28;20324;-73
2023/03/18 01:06:27;;;;;;;;;;;;;;;11.22;100.00;100730.13;5016792;28;20004;-74
2023/03/18 01:08:52;;;;;;;;;;;;;;;11.20;100.00;100735.59;5016114;28;19967;-74
2023/03/18 01:11:17;;;;;;;;;;;;;;;11.22;100.00;100738.19;5013359;28;19968;-74
2023/03/18 01:13:43;;;;;;;;;;;;;;;11.06;100.00;100747.50;5018625;28;19921;-74
2023/03/18 01:16:08;;;;;;;;;;;;;;;10.89;100.00;100748.00;5020824;28;19970;-74
2023/03/18 01:18:35;;;;;;;;;;;;;;;10.80;100.00;100752.31;4990727;28;19959;-74
2023/03/18 01:21:00;;;;;;;;;;;;;;;10.78;100.00;100749.72;5022933;28;19928;-74
2023/03/18 01:23:26;;;;;;;;;;;;;;;10.87;100.00;100748.13;5016344;28;19924;-74
2023/03/18 01:25:52;;;;;;;;;;;;;;;10.85;100.00;100749.25;5016591;28;19921;-74
2023/03/18 01:28:17;;;;;;;;;;;;;;;10.90;100.00;100747.88;5019753;28;19967;-74
2023/03/18 01:30:43;;;;;;;;;;;;;;;10.89;100.00;100748.84;4987134;28;19917;-74
2023/03/18 01:33:08;;;;;;;;;;;;;;;11.08;100.00;100742.84;4986525;28;20430;-74
2023/03/18 01:35:34;;;;;;;;;;;;;;;11.17;100.00;100748.47;5001736;28;19920;-74
2023/03/18 01:38:00;;;;;;;;;;;;;;;11.20;100.00;100741.00;5005094;28;20019;-74
2023/03/18 01:40:25;;;;;;;;;;;;;;;11.23;100.00;100739.91;5015611;28;19925;-74
2023/03/18 01:43:03;;;;;;;;;;;;;;;11.11;100.00;100747.13;5001506;28;20382;-74
2023/03/18 01:45:29;;;;;;;;;;;;;;;11.16;100.00;100746.75;5016600;28;20040;-74
2023/03/18 01:47:56;;;;;;;;;;;;;;;10.98;100.00;100744.59;5000792;28;19925;-74
2023/03/18 01:50:22;;;;;;;;;;;;;;;10.89;100.00;100743.47;5001827;28;19964;-74
2023/03/18 01:52:47;;;;;;;;;;;;;;;11.01;100.00;100743.47;5019499;28;20036;-76
2023/03/18 01:55:17;;;;;;;;;;;;;;;10.75;100.00;100727.63;5006588;28;20438;-74
2023/03/18 01:57:43;;;;;;;;;;;;;;;10.80;100.00;100747.78;5005700;28;19943;-75
2023/03/18 02:00:09;;;;;;;;;;;;;;;10.90;100.00;100747.88;4983338;28;20307;-74
2023/03/18 02:02:35;;;;;;;;;;;;;;;10.93;100.00;100738.72;5004530;28;20008;-76
2023/03/18 02:05:01;;;;;;;;;;;;;;;10.83;100.00;100737.75;5021287;28;20133;-76
2023/03/18 02:07:28;;;;;;;;;;;;;;;10.66;100.00;100739.97;4986391;28;20036;-75
2023/03/18 02:09:54;;;;;;;;;;;;;;;10.79;100.00;100739.84;4999118;28;19944;-75
2023/03/18 02:12:24;;;;;;;;;;;;;;;10.49;100.00;100746.69;5014621;28;20375;-75
2023/03/18 02:14:50;;;;;;;;;;;;;;;10.44;100.00;100747.06;5019995;28;19921;-75
2023/03/18 02:17:16;;;;;;;;;;;;;;;10.57;100.00;100746.94;5020085;28;20193;-75
2023/03/18 02:19:57;;;;;;;;;;;;;;;10.54;100.00;100747.19;5001937;28;19925;-76
2023/03/18 02:22:24;;;;;;;;;;;;;;;10.51;100.00;100755.47;5018205;28;19928;-76
2023/03/18 02:24:49;;;;;;;;;;;;;;;10.41;100.00;100752.66;5003007;28;20348;-75
2023/03/18 02:27:28;;;;;;;;;;;;;;;10.46;100.00;100757.66;5018670;28;19920;-76
2023/03/18 02:29:56;;;;;;;;;;;;;;;10.20;100.00;100757.84;5003728;28;20280;-76
2023/03/18 02:32:21;;;;;;;;;;;;;;;10.39;100.00;100759.09;5018037;28;19925;-76
2023/03/18 02:34:46;;;;;;;;;;;;;;;10.25;100.00;100754.78;5000938;28;19921;-76
2023/03/18 02:37:12;;;;;;;;;;;;;;;10.02;100.00;100769.03;5002589;28;19932;-76
2023/03/18 02:39:37;;;;;;;;;;;;;;;10.01;100.00;100779.84;4999199;28;20107;-76
2023/03/18 02:42:03;;;;;;;;;;;;;;;9.96;100.00;100776.66;5015716;28;19964;-76
2023/03/18 02:44:28;;;;;;;;;;;;;;;9.99;100.00;100784.47;5003854;28;19971;-76
2023/03/18 02:46:58;;;;;;;;;;;;;;;9.93;100.00;100783.13;4986568;28;19960;-77
2023/03/18 02:49:23;;;;;;;;;;;;;;;10.06;100.00;100783.88;5017112;28;20007;-77
2023/03/18 02:51:49;;;;;;;;;;;;;;;10.14;100.00;100787.81;5001131;28;19921;-77
2023/03/18 02:54:19;;;;;;;;;;;;;;;9.93;100.00;100788.50;5003204;28;20064;-77
2023/03/18 02:56:44;;;;;;;;;;;;;;;9.94;100.00;100790.22;4998593;28;20043;-77
2023/03/18 02:59:10;;;;;;;;;;;;;;;9.90;100.00;100792.28;4988262;28;19933;-78
2023/03/18 03:01:35;;;;;;;;;;;;;;;10.00;100.00;100791.56;5010191;28;19928;-78
2023/03/18 03:04:01;;;;;;;;;;;;;;;9.95;100.00;100796.41;4984349;28;19971;-78
2023/03/18 03:06:26;;;;;;;;;;;;;;;10.00;100.00;100803.16;5015638;28;19921;-78
2023/03/18 03:08:51;;;;;;;;;;;;;;;9.94;100.00;100808.97;5007600;28;19983;-78
2023/03/18 03:11:17;;;;;;;;;;;;;;;10.16;100.00;100804.66;5005450;28;19928;-79
2023/03/18 03:13:46;;;;;;;;;;;;;;;10.08;100.00;100804.38;5002783;28;20296;-78
2023/03/18 03:16:12;;;;;;;;;;;;;;;9.98;100.00;100805.09;5012815;28;19921;-77
2023/03/18 03:18:38;;;;;;;;;;;;;;;9.97;100.00;100805.19;5006699;28;20504;-77
2023/03/18 03:21:03;;;;;;;;;;;;;;;9.87;100.00;100810.41;5011234;28;19921;-78
2023/03/18 03:23:29;;;;;;;;;;;;;;;9.78;100.00;100816.47;5003593;28;19925;-78
2023/03/18 03:25:55;;;;;;;;;;;;;;;9.68;100.00;100827.00;5021112;28;20387;-77
2023/03/18 03:28:20;;;;;;;;;;;;;;;9.81;100.00;100825.16;5020944;28;20410;-77
2023/03/18 03:30:45;;;;;;;;;;;;;;;9.94;100.00;100824.19;5004352;28;20007;-77
2023/03/18 03:33:12;;;;;;;;;;;;;;;9.98;100.00;100823.00;5010144;28;19928;-78
2023/03/18 03:35:37;;;;;;;;;;;;;;;9.88;100.00;100821.03;5034634;28;19939;-78
2023/03/18 03:38:03;;;;;;;;;;;;;;;9.80;100.00;100830.63;5003257;28;20355;-77
2023/03/18 03:40:29;;;;;;;;;;;;;;;9.82;100.00;100834.03;5000702;28;19999;-78
2023/03/18 03:42:55;;;;;;;;;;;;;;;9.84;100.00;100837.44;5014477;28;19921;-77
2023/03/18 03:45:20;;;;;;;;;;;;;;;9.81;100.00;100835.00;5005691;28;19921;-78
2023/03/18 03:47:45;;;;;;;;;;;;;;;9.79;100.00;100837.81;5006721;28;20389;-77
2023/03/18 03:50:11;;;;;;;;;;;;;;;9.83;100.00;100839.28;5020499;28;19983;-78
2023/03/18 03:52:38;;;;;;;;;;;;;;;9.73;100.00;100833.75;4987782;28;21446;-78
2023/03/18 03:55:04;;;;;;;;;;;;;;;9.71;100.00;100841.06;5003456;28;20367;-78
2023/03/18 03:57:29;;;;;;;;;;;;;;;9.75;100.00;100836.31;5008266;28;20024;-78
2023/03/18 03:59:55;;;;;;;;;;;;;;;9.84;100.00;100843.69;5021753;28;19925;-78
2023/03/18 04:02:22;;;;;;;;;;;;;;;9.76;100.00;100840.72;5006587;28;19920;-78
2023/03/18 04:04:47;;;;;;;;;;;;;;;9.77;100.00;100836.22;5018295;28;19920;-78
2023/03/18 04:07:13;;;;;;;;;;;;;;;9.83;100.00;100838.41;5004286;28;20325;-78
2023/03/18 04:09:39;;;;;;;;;;;;;;;9.83;100.00;100839.28;5013036;28;20022;-78
2023/03/18 04:12:05;;;;;;;;;;;;;;;9.93;100.00;100842.13;4998292;28;20056;-78
2023/03/18 04:14:30;;;;;;;;;;;;;;;9.96;100.00;100838.34;4988473;28;20834;-77
2023/03/18 04:16:57;;;;;;;;;;;;;;;9.95;100.00;100850.94;4988139;28;19929;-78
2023/03/18 04:19:22;;;;;;;;;;;;;;;9.90;100.00;100843.22;5002657;28;19929;-78
2023/03/18 04:21:48;;;;;;;;;;;;;;;9.83;100.00;100843.78;4986865;28;19947;-77
2023/03/18 04:24:13;;;;;;;;;;;;;;;9.78;100.00;100854.03;4983929;28;19928;-77
2023/03/18 04:26:38;;;;;;;;;;;;;;;9.75;100.00;100852.41;4999729;28;19956;-78
2023/03/18 04:29:03;;;;;;;;;;;;;;;9.64;100.00;100853.19;5011098;28;20035;-77
2023/03/18 04:31:28;;;;;;;;;;;;;;;9.66;100.00;100853.09;5001011;28;19925;-77
2023/03/18 04:33:54;;;;;;;;;;;;;;;9.78;100.00;100851.34;5002084;28;19932;-77
2023/03/18 04:36:19;;;;;;;;;;;;;;;9.90;100.00;100853.09;5018503;28;19921;-78
2023/03/18 04:38:45;;;;;;;;;;;;;;;9.75;100.00;100861.31;5018819;28;19939;-77
2023/03/18 04:41:10;;;;;;;;;;;;;;;9.83;100.00;100860.75;5000833;28;19921;-77
2023/03/18 04:43:35;;;;;;;;;;;;;;;9.93;100.00;100857.38;5020280;28;19921;-77
2023/03/18 04:46:00;;;;;;;;;;;;;;;9.92;100.00;100853.84;5018123;28;20263;-77
2023/03/18 04:48:26;;;;;;;;;;;;;;;9.81;100.00;100851.09;4999808;28;20383;-77
2023/03/18 04:50:51;;;;;;;;;;;;;;;9.79;100.00;100856.56;5017546;28;20364;-77
2023/03/18 04:53:16;;;;;;;;;;;;;;;9.81;100.00;100853.75;5001260;28;20040;-77
2023/03/18 04:55:42;;;;;;;;;;;;;;;9.81;100.00;100853.75;5015656;28;19952;-77
2023/03/18 04:58:08;;;;;;;;;;;;;;;9.82;100.00;100856.34;5020270;28;19921;-77
2023/03/18 05:00:33;;;;;;;;;;;;;;;9.81;100.00;100857.31;5000805;28;19991;-77
2023/03/18 05:03:00;;;;;;;;;;;;;;;9.72;100.00;100855.31;5015753;28;19921;-77
2023/03/18 05:05:25;;;;;;;;;;;;;;;9.63;100.00;100856.00;5014853;28;19921;-77
2023/03/18 05:07:51;;;;;;;;;;;;;;;9.60;100.00;100859.75;5001862;28;19943;-77
2023/03/18 05:10:18;;;;;;;;;;;;;;;9.66;100.00;100867.34;4999932;28;19927;-77
2023/03/18 05:12:43;;;;;;;;;;;;;;;9.66;100.00;100871.88;5014903;28;19925;-78
2023/03/18 05:15:08;;;;;;;;;;;;;;;9.66;100.00;100869.19;4984635;28;19925;-77
2023/03/18 05:17:34;;;;;;;;;;;;;;;9.62;100.00;100871.22;5004859;28;19921;-77
2023/03/18 05:19:59;;;;;;;;;;;;;;;9.72;100.00;100868.72;5020052;28;19932;-78
2023/03/18 05:22:25;;;;;;;;;;;;;;;9.72;100.00;100874.94;5018104;28;19992;-78
2023/03/18 05:24:50;;;;;;;;;;;;;;;9.80;100.00;100884.25;5022315;28;19983;-78
2023/03/18 05:27:17;;;;;;;;;;;;;;;9.81;100.00;100884.13;5003260;28;20015;-78
2023/03/18 05:29:42;;;;;;;;;;;;;;;9.85;100.00;100888.31;4988466;28;20024;-77
2023/03/18 05:32:07;;;;;;;;;;;;;;;9.86;100.00;100883.78;5018703;28;20345;-77
2023/03/18 05:34:33;;;;;;;;;;;;;;;9.80;100.00;100885.09;5022940;28;19925;-78
2023/03/18 05:36:58;;;;;;;;;;;;;;;9.86;100.00;100886.47;5020053;28;19932;-78
2023/03/18 05:39:24;;;;;;;;;;;;;;;9.84;100.00;100888.41;5018485;28;20048;-78
2023/03/18 05:41:49;;;;;;;;;;;;;;;9.82;100.00;100887.66;4982349;28;19925;-78
2023/03/18 05:44:14;;;;;;;;;;;;;;;9.79;100.00;100891.44;5018362;28;19932;-78
2023/03/18 05:46:39;;;;;;;;;;;;;;;9.82;100.00;100888.53;5016771;28;19921;-77
2023/03/18 05:49:04;;;;;;;;;;;;;;;9.74;100.00;100896.28;5022532;28;19944;-77
2023/03/18 05:51:31;;;;;;;;;;;;;;;9.74;100.00;100898.97;5005809;28;19921;-77
2023/03/18 05:53:56;;;;;;;;;;;;;;;9.81;100.00;100888.63;4986576;28;19925;-77
2023/03/18 05:56:21;;;;;;;;;;;;;;;9.78;100.00;100883.53;5003783;28;20319;-77
2023/03/18 05:58:46;;;;;;;;;;;;;;;9.88;100.00;100882.72;5018790;28;20350;-77
2023/03/18 06:01:12;;;;;;;;;;;;;;;9.81;100.00;100888.63;5015376;28;20387;-78
2023/03/18 06:03:38;;;;;;;;;;;;;;;9.87;100.00;100888.19;5000068;28;19925;-77
2023/03/18 06:06:03;;;;;;;;;;;;;;;9.88;100.00;100903.31;5003427;28;20347;-78
2023/03/18 06:08:29;;;;;;;;;;;;;;;9.77;100.00;100904.09;5003452;28;20463;-78
2023/03/18 06:10:54;;;;;;;;;;;;;;;9.83;100.00;100911.69;4981899;28;19928;-78
2023/03/18 06:13:20;;;;;;;;;;;;;;;9.83;100.00;100905.47;5002318;28;19967;-78
2023/03/18 06:15:45;;;;;;;;;;;;;;;9.83;100.00;100910.81;5002680;28;19921;-78
2023/03/18 06:18:11;;;;;;;;;;;;;;;9.86;100.00;100916.84;5017154;28;20269;-78
2023/03/18 06:20:36;;;;;;;;;;;;;;;10.03;100.00;100915.59;5016170;28;20387;-77
2023/03/18 06:23:02;;;;;;;;;;;;;;;9.97;100.00;100913.34;5018713;28;19921;-78
2023/03/18 06:25:27;;;;;;;;;;;;;;;9.94;100.00;100915.38;4982678;28;20253;-78
2023/03/18 06:27:53;;;;;;;;;;;;;;;10.07;100.00;100924.25;5004492;28;19975;-77
2023/03/18 06:30:18;;;;;;;;;;;;;;;10.05;100.00;100926.19;5016795;28;19963;-78
2023/03/18 06:32:44;;;;;;;;;;;;;;;10.02;100.00;100932.66;5013136;28;19921;-77
2023/03/18 06:35:09;;;;;;;;;;;;;;;9.93;100.00;100930.66;5004384;28;19928;-77
2023/03/18 06:37:35;;;;;;;;;;;;;;;9.87;100.00;100937.31;5019469;28;19921;-77
2023/03/18 06:40:00;;;;;;;;;;;;;;;9.83;100.00;100925.09;4999329;28;19925;-77
2023/03/18 06:42:27;;;;;;;;;;;;;;;9.88;100.00;100925.63;5016972;28;20405;-77
2023/03/18 06:44:53;;;;;;;;;;;;;;;9.92;100.00;100930.78;5018548;28;20024;-77
2023/03/18 06:47:19;;;;;;;;;;;;;;;10.13;100.00;100920.25;5015569;28;19925;-77
2023/03/18 06:49:45;;;;;;;;;;;;;;;10.05;100.00;100929.75;4995653;28;19924;-77
2023/03/18 06:52:12;;;;;;;;;;;;;;;10.16;100.00;100923.59;5006277;28;19921;-77
2023/03/18 06:54:38;;;;;;;;;;;;;;;10.26;100.00;100914.81;5013260;28;19944;-78
2023/03/18 06:57:03;;;;;;;;;;;;;;;10.34;100.00;100918.63;5013149;28;19924;-77
2023/03/18 06:59:28;;;;;;;;;;;;;;;10.53;100.00;100914.59;4991396;28;20462;-77
2023/03/18 07:01:54;;;;;;;;;;;;;;;10.63;100.00;100920.94;4993007;28;20459;-77
2023/03/18 07:04:19;;;;;;;;;;;;;;;10.58;100.00;100931.22;4999105;28;20346;-77
2023/03/18 07:06:44;;;;;;;;;;;;;;;10.68;100.00;100925.13;5001084;28;20371;-78
2023/03/18 07:09:11;;;;;;;;;;;;;;;10.60;100.00;100925.72;4987562;28;19924;-77
2023/03/18 07:11:36;;;;;;;;;;;;;;;10.68;100.00;100933.19;5009092;28;19925;-77
2023/03/18 07:14:01;;;;;;;;;;;;;;;10.92;100.00;100936.66;5012885;28;19921;-77
2023/03/18 07:16:27;;;;;;;;;;;;;;;10.94;100.00;100939.22;5014599;28;19971;-78
2023/03/18 07:18:52;;;;;;;;;;;;;;;10.79;100.00;100941.28;5006764;28;19963;-77
2023/03/18 07:21:18;;;;;;;;;;;;;;;10.84;100.00;100933.72;4993767;28;19932;-76
2023/03/18 07:23:43;;;;;;;;;;;;;;;11.14;100.00;100945.72;5009028;28;19933;-77
2023/03/18 07:26:09;;;;;;;;;;;;;;;11.03;100.00;100951.94;5008186;28;19924;-77
2023/03/18 07:28:34;;;;;;;;;;;;;;;11.21;100.00;100963.06;5012586;28;19921;-77
2023/03/18 07:30:59;;;;;;;;;;;;;;;11.18;100.00;100966.00;4995574;28;19943;-77
2023/03/18 07:33:25;;;;;;;;;;;;;;;11.17;100.00;100961.59;4997208;28;19956;-75
2023/03/18 07:35:50;;;;;;;;;;;;;;;11.23;100.00;100955.75;5008531;28;19960;-76
2023/03/18 07:38:17;;;;;;;;;;;;;;;11.23;100.00;100955.75;4991176;28;19927;-76
2023/03/18 07:40:42;;;;;;;;;;;;;;;11.35;100.00;100947.69;4992301;28;19925;-78
2023/03/18 07:43:08;;;;;;;;;;;;;;;11.48;100.00;100958.31;4981643;28;20334;-77
2023/03/18 07:45:33;;;;;;;;;;;;;;;11.44;100.00;100960.38;5015748;28;19921;-77
2023/03/18 07:47:59;;;;;;;;;;;;;;;11.50;100.00;100934.88;5008213;28;20481;-80
2023/03/18 07:50:24;;;;;;;;;;;;;;;11.61;100.00;100971.66;4997853;28;19926;-76
2023/03/18 07:52:49;;;;;;;;;;;;;;;11.54;100.00;100965.88;5011606;28;19964;-74
2023/03/18 07:55:14;;;;;;;;;;;;;;;11.43;100.00;100963.22;5012588;28;20167;-76
2023/03/18 07:57:40;;;;;;;;;;;;;;;11.56;100.00;100980.06;5012188;28;19921;-75
2023/03/18 08:00:06;;;;;;;;;;;;;;;11.76;100.00;100975.78;4990528;28;20224;-76
2023/03/18 08:02:32;;;;;;;;;;;;;;;11.80;100.00;100992.50;4983135;28;20645;-75
2023/03/18 08:04:58;;;;;;;;;;;;;;;11.81;100.00;100981.66;4980697;28;20374;-77
2023/03/18 08:07:23;;;;;;;;;;;;;;;11.91;100.00;100987.13;5012625;28;19979;-76
2023/03/18 08:09:49;;;;;;;;;;;;;;;11.87;100.00;100984.81;4996200;28;19968;-76
2023/03/18 08:12:15;;;;;;;;;;;;;;;11.75;100.00;100981.28;5013405;28;19920;-76
2023/03/18 08:14:40;;;;;;;;;;;;;;;11.68;100.00;100987.16;5009554;28;20476;-80
2023/03/18 08:17:05;;;;;;;;;;;;;;;11.49;100.00;100997.69;5004912;28;20494;-77
2023/03/18 08:19:31;;;;;;;;;;;;;;;11.57;100.00;100987.16;5003168;28;19925;-77
2023/03/18 08:21:56;;;;;;;;;;;;;;;11.64;100.00;100993.75;5017064;28;20010;-75
2023/03/18 08:24:23;;;;;;;;;;;;;;;11.35;100.00;100996.09;4996278;28;20329;-76
2023/03/18 08:26:48;;;;;;;;;;;;;;;11.50;100.00;100992.16;5011026;28;19921;-76
2023/03/18 08:29:13;;;;;;;;;;;;;;;11.68;100.00;100988.97;4996905;28;19928;-77
2023/03/18 08:31:38;;;;;;;;;;;;;;;12.07;100.00;100986.78;5008807;28;19972;-76
2023/03/18 08:34:04;;;;;;;;;;;;;;;12.19;100.00;100984.03;5009602;28;20039;-76
2023/03/18 08:36:29;;;;;;;;;;;;;;;12.65;100.00;100979.34;4997077;28;19931;-76
2023/03/18 08:38:55;;;;;;;;;;;;;;;12.80;100.00;100986.13;5006610;28;20021;-75
2023/03/18 08:41:21;;;;;;;;;;;;;;;13.04;100.00;100979.63;4989541;28;20075;-75
2023/03/18 08:43:46;;;;;;;;;;;;;;;13.20;100.00;100976.47;5011102;28;19928;-75
2023/03/18 08:46:11;;;;;;;;;;;;;;;13.56;100.00;100985.03;5006790;28;20275;-76
2023/03/18 08:48:36;;;;;;;;;;;;;;;13.95;100.00;100985.16;5017296;28;19917;-76
2023/03/18 08:51:03;;;;;;;;;;;;;;;14.36;100.00;100977.00;5005348;28;19928;-75
2023/03/18 08:53:28;;;;;;;;;;;;;;;13.77;100.00;100982.28;5005664;28;20383;-75
2023/03/18 08:55:54;;;;;;;;;;;;;;;13.72;100.00;100983.69;5024205;28;19917;-74
2023/03/18 08:58:19;;;;;;;;;;;;;;;13.73;100.00;100986.22;5025430;28;20139;-77
2023/03/18 09:00:44;;;;;;;;;;;;;;;13.67;100.00;100989.47;5006122;28;19975;-75
2023/03/18 09:03:09;;;;;;;;;;;;;;;14.07;100.00;100985.03;5006546;28;20011;-75
2023/03/18 09:05:34;;;;;;;;;;;;;;;14.38;100.00;100977.72;5026328;28;19987;-77
2023/03/18 09:08:00;;;;;;;;;;;;;;;14.22;100.00;100983.66;5031119;28;19939;-77
2023/03/18 09:10:25;;;;;;;;;;;;;;;13.86;100.00;100986.00;5001693;28;19960;-75
2023/03/18 09:12:50;;;;;;;;;;;;;;;14.10;100.00;100982.94;5016164;28;19949;-75
2023/03/18 09:15:16;;;;;;;;;;;;;;;14.03;100.00;100987.16;5033118;28;20420;-77
2023/03/18 09:17:41;;;;;;;;;;;;;;;14.20;100.00;100991.03;5035440;28;19921;-75
2023/03/18 09:20:08;;;;;;;;;;;;;;;14.51;100.00;100992.78;5008942;28;19980;-74
2023/03/18 09:22:34;;;;;;;;;;;;;;;14.45;100.00;101004.13;5022875;28;20016;-74
2023/03/18 09:24:59;;;;;;;;;;;;;;;14.42;100.00;100972.88;5031558;28;19932;-75
2023/03/18 09:27:24;;;;;;;;;;;;;;;14.96;100.00;100989.50;5010359;28;19917;-75
2023/03/18 09:29:50;;;;;;;;;;;;;;;14.73;100.00;100997.06;5031369;28;20342;-75
2023/03/18 09:32:16;;;;;;;;;;;;;;;14.87;100.00;101000.31;5015006;28;19921;-75
2023/03/18 09:34:41;;;;;;;;;;;;;;;14.93;100.00;100995.22;5021287;28;20027;-76
2023/03/18 09:37:06;;;;;;;;;;;;;;;15.12;100.00;100994.31;5022739;28;19916;-75
2023/03/18 09:39:32;;;;;;;;;;;;;;;14.72;100.00;101000.78;5031360;28;19971;-73
2023/03/18 09:42:04;;;;;;;;;;;;;;;14.85;100.00;100995.91;5018859;28;20012;-76
2023/03/18 09:44:30;;;;;;;;;;;;;;;14.62;100.00;100998.03;5023899;28;19932;-75
2023/03/18 09:47:17;;;;;;;;;;;;;;;14.52;100.00;100984.53;5024240;28;20394;-75
2023/03/18 09:49:45;;;;;;;;;;;;;;;14.94;100.00;100996.94;5026428;28;19943;-76
2023/03/18 09:52:10;;;;;;;;;;;;;;;14.83;100.00;101003.31;5027080;28;20287;-75
2023/03/18 09:54:38;;;;;;;;;;;;;;;14.83;100.00;101013.28;5028711;28;20414;-74
2023/03/18 09:57:03;;;;;;;;;;;;;;;15.28;100.00;101001.81;5013173;28;20066;-75
2023/03/18 09:59:28;;;;;;;;;;;;;;;15.56;100.00;101014.56;4997740;28;20213;-74
2023/03/18 10:01:54;;;;;;;;;;;;;;;15.70;100.00;101005.94;5011504;28;19936;-74
2023/03/18 10:04:24;;;;;;;;;;;;;;;15.93;100.00;100997.44;4986193;28;20051;-73
2023/03/18 10:06:52;;;;;;;;;;;;;;;16.06;100.00;101015.22;4997274;28;19926;-74
2023/03/18 10:09:30;;;;;;;;;;;;;;;16.01;100.00;101002.13;4999159;28;19928;-73
2023/03/18 10:12:00;;;;;;;;;;;;;;;15.97;100.00;101003.44;5014583;28;19925;-76
2023/03/18 10:14:25;;;;;;;;;;;;;;;16.34;100.00;101021.44;5014764;28;19921;-74
2023/03/18 10:17:03;;;;;;;;;;;;;;;16.24;100.00;101016.09;5019377;28;20390;-73
2023/03/18 10:19:29;;;;;;;;;;;;;;;16.39;100.00;101024.56;5016705;28;19943;-74
2023/03/18 10:21:54;;;;;;;;;;;;;;;16.48;100.00;101017.34;5003622;28;20374;-73
2023/03/18 10:24:31;;;;;;;;;;;;;;;16.60;100.00;101013.41;5020930;28;19920;-73
2023/03/18 10:27:02;;;;;;;;;;;;;;;17.08;100.00;100994.19;5014090;28;20381;-73
2023/03/18 10:29:41;;;;;;;;;;;;;;;16.71;100.00;100992.47;5020054;28;19965;-74
2023/03/18 10:32:12;;;;;;;;;;;;;;;16.70;100.00;100997.06;5014131;28;20024;-74
2023/03/18 10:34:37;;;;;;;;;;;;;;;16.37;100.00;100994.03;5000529;28;21547;-74
2023/03/18 10:37:09;;;;;;;;;;;;;;;16.64;100.00;100994.97;5012830;28;19929;-74
2023/03/18 10:39:35;;;;;;;;;;;;;;;17.04;94.79;100996.38;5012429;28;19925;-74
2023/03/18 10:42:19;;;;;;;;;;;;;;;17.14;100.00;100995.41;4994512;28;19921;-74
2023/03/18 10:44:45;;;;;;;;;;;;;;;17.70;93.60;100998.63;5007679;28;19928;-74
2023/03/18 10:47:29;;;;;;;;;;;;;;;17.55;93.24;101009.22;5011687;28;19925;-74
2023/03/18 10:49:56;;;;;;;;;;;;;;;17.96;91.36;100995.81;4995146;28;20343;-74
2023/03/18 10:52:27;;;;;;;;;;;;;;;18.42;80.03;101000.91;5010785;28;20383;-74
2023/03/18 10:54:52;;;;;;;;;;;;;;;18.10;79.87;101010.66;5010430;28;19921;-75
2023/03/18 10:57:19;;;;;;;;;;;;;;;17.59;84.85;101001.59;5011550;28;19929;-74
2023/03/18 10:59:44;;;;;;;;;;;;;;;17.78;84.58;100998.63;4997458;28;20020;-74
2023/03/18 11:02:13;;;;;;;;;;;;;;;17.32;87.06;100998.94;5008911;28;19931;-74
2023/03/18 11:04:49;;;;;;;;;;;;;;;17.66;88.81;100994.53;5010706;28;20340;-74
2023/03/18 11:07:19;;;;;;;;;;;;;;;18.55;78.79;100984.09;5009755;28;19944;-74
2023/03/18 11:09:44;;;;;;;;;;;;;;;20.07;73.10;100982.63;5013962;28;19925;-76
2023/03/18 11:12:15;;;;;;;;;;;;;;;19.90;73.96;100977.22;4992094;28;19999;-74
2023/03/18 11:14:45;;;;;;;;;;;;;;;20.07;66.24;100978.00;5013129;28;19921;-74
2023/03/18 11:17:19;;;;;;;;;;;;;;;20.98;67.38;100980.09;4992581;28;19920;-74
2023/03/18 11:19:46;;;;;;;;;;;;;;;19.60;74.57;100987.03;5013561;28;20308;-74
2023/03/18 11:22:18;;;;;;;;;;;;;;;19.44;68.23;100977.91;5013878;28;19921;-74
2023/03/18 11:24:44;;;;;;;;;;;;;;;20.58;70.65;100983.97;5009760;28;20039;-74
2023/03/18 11:27:29;;;;;;;;;;;;;;;21.26;63.19;100981.34;5010552;28;20024;-74
2023/03/18 11:29:56;;;;;;;;;;;;;;;20.47;71.31;100982.53;4999513;28;19921;-74
2023/03/18 11:32:22;;;;;;;;;;;;;;;20.03;66.74;100981.28;5012564;28;19927;-74
2023/03/18 11:34:52;;;;;;;;;;;;;;;20.82;61.88;100967.44;5011759;28;20279;-74
2023/03/18 11:37:17;;;;;;;;;;;;;;;20.78;60.89;100968.00;4999719;28;20296;-74
2023/03/18 11:39:43;;;;;;;;;;;;;;;20.21;64.19;100976.38;4979571;28;19929;-74
2023/03/18 11:42:16;;;;;;;;;;;;;;;18.65;71.89;100981.22;4996670;28;20052;-75
2023/03/18 11:44:41;;;;;;;;;;;;;;;18.02;72.56;100979.91;4995723;28;19927;-74
2023/03/18 11:47:11;;;;;;;;;;;;;;;17.05;77.89;100981.78;5008473;28;20193;-74
2023/03/18 11:49:36;;;;;;;;;;;;;;;16.68;81.24;100985.53;5001803;28;19921;-74
2023/03/18 11:52:07;;;;;;;;;;;;;;;16.82;82.47;100980.56;5011897;28;20347;-74
2023/03/18 11:54:32;;;;;;;;;;;;;;;16.67;83.14;100983.81;5014179;28;19956;-73
2023/03/18 11:56:59;;;;;;;;;;;;;;;16.46;84.00;100974.16;5010714;28;20447;-74
2023/03/18 11:59:30;;;;;;;;;;;;;;;16.26;92.90;100978.88;5003314;28;19925;-74
2023/03/18 12:02:01;;;;;;;;;;;;;;;16.00;88.17;100987.72;5010904;28;20222;-75
2023/03/18 12:04:26;;;;;;;;;;;;;;;16.13;86.89;100989.25;4995773;28;20021;-74
2023/03/18 12:07:10;;;;;;;;;;;;;;;16.12;87.69;100991.09;5002650;28;19921;-74
2023/03/18 12:09:47;;;;;;;;;;;;;;;16.06;89.25;100991.69;5009494;28;19921;-74
2023/03/18 12:12:33;;;;;;;;;;;;;;;16.00;91.04;100997.72;5009051;28;19921;-74
2023/03/18 12:15:02;;;;;;;;;;;;;;;15.83;94.22;100994.78;5012604;28;19928;-74
2023/03/18 12:17:31;;;;;;;;;;;;;;;15.96;87.09;100986.31;5013274;28;19965;-74
2023/03/18 12:20:09;;;;;;;;;;;;;;;15.91;85.87;100990.50;4996243;28;19925;-74
2023/03/18 12:22:44;;;;;;;;;;;;;;;15.88;84.65;100992.50;5010440;28;20002;-74
2023/03/18 12:25:18;;;;;;;;;;;;;;;15.71;86.81;100990.56;5013759;28;19928;-74
2023/03/18 12:27:56;;;;;;;;;;;;;;;15.57;86.92;100995.47;5017743;28;20017;-74